Time;durP1;ratioP1;P1;durP2;ratioP2;P2;SDS_P1;SDS_P2;PMS_P1;PMS_P2;Temp;Humidity;BMP_temperature;BMP_pressure;BME280_temperature;BME280_humidity;BME280_pressure;Samples;Min_cycle;Max_cycle;Signal;HPM_P1;HPM_P2
2023/10/15 00:00:12;;;;;;;3.90;1.00;;;;;;;;;;4965800;28;102014;-81
2023/10/15 00:02:43;;;;;;;3.80;0.95;;;;;;;;;;4957113;28;100427;-82
2023/10/15 00:05:10;;;;;;;2.38;1.00;;;;;;;;;;4971671;28;98663;-82
2023/10/15 00:07:36;;;;;;;4.20;1.17;;;;;;;;;;4965694;28;98384;-81
2023/10/15 00:10:07;;;;;;;3.30;1.10;;;;;;;;;;4926480;28;99231;-81
2023/10/15 00:12:33;;;;;;;2.80;1.05;;;;;;;;;;4944173;28;98908;-82
2023/10/15 00:15:00;;;;;;;3.50;1.10;;;;;;;;;;4944889;28;99222;-82
2023/10/15 00:17:27;;;;;;;3.80;1.10;;;;;;;;;;4958029;28;97793;-82
2023/10/15 00:19:55;;;;;;;3.13;1.10;;;;;;;;;;4961217;28;98551;-82
2023/10/15 00:22:22;;;;;;;2.67;1.00;;;;;;;;;;4953980;28;104640;-82
2023/10/15 00:24:50;;;;;;;3.47;1.05;;;;;;;;;;4948542;28;99599;-83
2023/10/15 00:27:17;;;;;;;4.63;1.33;;;;;;;;;;4951999;28;102183;-83
2023/10/15 00:29:44;;;;;;;2.60;0.90;;;;;;;;;;4937069;28;99079;-83
2023/10/15 00:32:11;;;;;;;4.38;1.05;;;;;;;;;;4951983;28;98563;-83
2023/10/15 00:34:39;;;;;;;2.90;1.08;;;;;;;;;;4946786;28;99399;-83
2023/10/15 00:37:05;;;;;;;5.55;0.98;;;;;;;;;;4948333;28;98587;-83
2023/10/15 00:39:37;;;;;;;3.72;1.10;;;;;;;;;;4949247;28;98781;-83
2023/10/15 00:42:03;;;;;;;2.80;0.98;;;;;;;;;;4957726;28;98663;-82
2023/10/15 00:44:30;;;;;;;3.33;1.08;;;;;;;;;;4964626;28;98936;-83
2023/10/15 00:46:57;;;;;;;3.65;1.00;;;;;;;;;;4964854;28;98967;-83
2023/10/15 00:49:27;;;;;;;3.75;0.90;;;;;;;;;;4965090;28;99928;-82
2023/10/15 00:51:53;;;;;;;2.17;0.82;;;;;;;;;;4971563;28;99004;-83
2023/10/15 00:54:21;;;;;;;3.35;1.00;;;;;;;;;;4965651;28;102013;-82
2023/10/15 00:56:49;;;;;;;4.22;1.10;;;;;;;;;;4949497;28;99155;-82
2023/10/15 00:59:19;;;;;;;1.75;0.85;;;;;;;;;;4926939;28;98887;-83
2023/10/15 01:02:03;;;;;;;4.03;1.00;;;;;;;;;;4922394;28;99659;-83
2023/10/15 01:04:35;;;;;;;4.10;1.10;;;;;;;;;;4948482;28;99092;-83
2023/10/15 01:07:32;;;;;;;4.32;1.02;;;;;;;;;;4968923;28;98870;-82
2023/10/15 01:09:49;;;;;;;3.08;0.95;;;;;;;;;;4933699;28;98854;-82
2023/10/15 01:12:30;;;;;;;1.58;0.75;;;;;;;;;;4942143;28;98893;-82
2023/10/15 01:14:57;;;;;;;2.88;0.90;;;;;;;;;;4927323;28;100407;-82
2023/10/15 01:17:36;;;;;;;5.07;1.05;;;;;;;;;;4927951;28;99759;-83
2023/10/15 01:20:09;;;;;;;2.40;0.80;;;;;;;;;;4932237;28;98822;-82
2023/10/15 01:22:39;;;;;;;4.55;1.08;;;;;;;;;;4945954;28;102551;-82
2023/10/15 01:25:17;;;;;;;3.42;1.00;;;;;;;;;;4945449;28;98697;-82
2023/10/15 01:27:45;;;;;;;3.47;0.80;;;;;;;;;;4962505;28;99441;-82
2023/10/15 01:30:17;;;;;;;;;;;;;;;;;;4957142;28;99339;-83
2023/10/15 01:32:44;;;;;;;;;;;;;;;;;;4968362;28;102585;-82
2023/10/15 01:35:14;;;;;;;4.55;1.08;;;;;;;;;;4966985;28;124089;-82
2023/10/15 01:37:45;;;;;;;2.78;0.80;;;;;;;;;;4947779;28;99386;-81
2023/10/15 01:42:41;;;;;;;4.90;1.00;;;;;;;;;;4944508;28;99660;-81
2023/10/15 01:45:13;;;;;;;4.28;0.80;;;;;;;;;;4976621;28;98791;-81
2023/10/15 01:50:23;;;;;;;2.65;0.90;;;;;;;;;;4979699;28;100712;-81
2023/10/15 01:53:01;;;;;;;1.63;0.80;;;;;;;;;;4970798;28;98881;-81
2023/10/15 01:55:29;;;;;;;4.55;1.08;;;;;;;;;;4963562;28;101144;-81
2023/10/15 01:58:00;;;;;;;1.10;0.65;;;;;;;;;;4956299;28;100678;-82
2023/10/15 02:03:06;;;;;;;2.40;0.80;;;;;;;;;;4956222;28;99436;-82
2023/10/15 02:05:42;;;;;;;4.30;1.05;;;;;;;;;;4963620;28;99484;-82
2023/10/15 02:08:13;;;;;;;1.70;0.73;;;;;;;;;;4947289;28;99711;-81
2023/10/15 02:10:40;;;;;;;2.05;0.60;;;;;;;;;;4965812;28;99048;-82
2023/10/15 02:13:08;;;;;;;;;;;;;;;;;;4966152;28;98513;-82
2023/10/15 02:15:38;;;;;;;3.90;0.75;;;;;;;;;;4948424;28;98681;-82
2023/10/15 02:18:07;;;;;;;1.65;0.70;;;;;;;;;;4961192;28;100335;-81
2023/10/15 02:23:19;;;;;;;1.25;0.65;;;;;;;;;;4943420;28;98716;-82
2023/10/15 02:25:47;;;;;;;4.82;0.73;;;;;;;;;;4949436;28;102882;-82
2023/10/15 02:28:16;;;;;;;;;;;;;;;;;;4963187;28;98855;-83
2023/10/15 02:30:46;;;;;;;2.70;0.70;;;;;;;;;;4956783;28;109044;-83
2023/10/15 02:33:16;;;;;;;2.85;0.70;;;;;;;;;;4964253;28;98825;-83
2023/10/15 02:35:45;;;;;;;2.13;0.60;;;;;;;;;;4942802;28;101843;-83
2023/10/15 02:38:13;;;;;;;2.50;0.70;;;;;;;;;;4943159;28;100284;-82
2023/10/15 02:43:27;;;;;;;2.20;0.50;;;;;;;;;;4965725;28;98780;-83
2023/10/15 02:45:55;;;;;;;3.42;0.80;;;;;;;;;;4966380;28;99533;-83
2023/10/15 02:48:22;;;;;;;3.47;0.80;;;;;;;;;;4962283;28;98127;-83
2023/10/15 02:51:01;;;;;;;1.92;0.80;;;;;;;;;;4951451;28;101381;-82
2023/10/15 02:53:34;;;;;;;2.58;0.80;;;;;;;;;;4948905;28;98924;-82
2023/10/15 02:56:10;;;;;;;2.00;0.60;;;;;;;;;;4926540;28;102204;-82
2023/10/15 02:58:36;;;;;;;1.13;0.52;;;;;;;;;;4944982;28;99269;-82
2023/10/15 03:01:12;;;;;;;1.70;0.80;;;;;;;;;;4970085;28;98697;-82
2023/10/15 03:03:48;;;;;;;2.10;0.85;;;;;;;;;;4953008;28;101996;-82
2023/10/15 03:06:18;;;;;;;2.70;0.93;;;;;;;;;;4951718;28;98700;-83
2023/10/15 03:08:45;;;;;;;0.88;0.60;;;;;;;;;;4948225;28;98489;-82
2023/10/15 03:11:18;;;;;;;2.95;0.50;;;;;;;;;;4959924;28;98679;-82
2023/10/15 03:13:54;;;;;;;1.55;0.65;;;;;;;;;;4964296;28;98301;-83
2023/10/15 03:16:26;;;;;;;1.25;0.60;;;;;;;;;;4953284;28;105507;-83
2023/10/15 03:18:56;;;;;;;1.27;0.68;;;;;;;;;;4943724;28;102073;-83
2023/10/15 03:21:26;;;;;;;2.42;0.60;;;;;;;;;;4946509;28;100063;-83
2023/10/15 03:23:55;;;;;;;1.73;0.70;;;;;;;;;;4943362;28;102781;-82
2023/10/15 03:26:35;;;;;;;3.95;0.80;;;;;;;;;;4932399;28;103954;-82
2023/10/15 03:29:09;;;;;;;3.00;0.60;;;;;;;;;;4946108;28;99003;-82
2023/10/15 03:31:37;;;;;;;2.08;0.65;;;;;;;;;;4952795;28;99521;-82
2023/10/15 03:34:14;;;;;;;2.53;0.80;;;;;;;;;;4951963;28;99234;-83
2023/10/15 03:36:50;;;;;;;2.30;0.60;;;;;;;;;;4965548;28;98706;-82
2023/10/15 03:39:24;;;;;;;1.65;0.70;;;;;;;;;;4966981;28;98645;-83
2023/10/15 03:42:09;;;;;;;0.98;0.63;;;;;;;;;;4959913;28;98434;-83
2023/10/15 03:44:44;;;;;;;2.17;0.70;;;;;;;;;;4968985;28;101980;-83
2023/10/15 03:47:12;;;;;;;1.02;0.70;;;;;;;;;;4952093;28;99894;-83
2023/10/15 03:49:39;;;;;;;1.90;0.70;;;;;;;;;;4961232;28;98518;-83
2023/10/15 03:52:14;;;;;;;1.33;0.63;;;;;;;;;;4952898;28;99246;-83
2023/10/15 03:54:47;;;;;;;2.47;0.70;;;;;;;;;;4944741;28;99423;-83
2023/10/15 03:57:17;;;;;;;2.40;0.80;;;;;;;;;;4956344;28;98838;-83
2023/10/15 03:59:53;;;;;;;1.55;0.60;;;;;;;;;;4942722;28;99295;-83
2023/10/15 04:02:31;;;;;;;3.17;0.73;;;;;;;;;;4944392;28;99234;-82
2023/10/15 04:05:03;;;;;;;2.42;0.80;;;;;;;;;;4941598;28;98943;-83
2023/10/15 04:07:30;;;;;;;2.85;0.70;;;;;;;;;;4955769;28;99404;-83
2023/10/15 04:09:58;;;;;;;4.53;0.70;;;;;;;;;;4946395;28;98760;-82
2023/10/15 04:12:27;;;;;;;2.35;0.70;;;;;;;;;;4942328;28;100214;-82
2023/10/15 04:14:55;;;;;;;1.17;0.70;;;;;;;;;;4926107;28;99353;-82
2023/10/15 04:17:22;;;;;;;2.45;0.63;;;;;;;;;;4936900;28;98575;-82
2023/10/15 04:19:49;;;;;;;0.70;0.50;;;;;;;;;;4956867;28;99717;-82
2023/10/15 04:22:15;;;;;;;2.88;0.70;;;;;;;;;;4942324;28;98701;-83
2023/10/15 04:24:46;;;;;;;2.03;0.70;;;;;;;;;;4932117;28;99802;-83
2023/10/15 04:27:16;;;;;;;2.13;0.70;;;;;;;;;;4933420;28;99280;-82
2023/10/15 04:29:51;;;;;;;1.95;0.80;;;;;;;;;;4942264;28;97738;-82
2023/10/15 04:32:23;;;;;;;1.73;0.80;;;;;;;;;;4938209;28;98588;-82
2023/10/15 04:34:50;;;;;;;2.85;0.75;;;;;;;;;;4967841;28;99288;-82
2023/10/15 04:37:20;;;;;;;2.90;0.70;;;;;;;;;;4950115;28;99381;-83
2023/10/15 04:39:55;;;;;;;2.00;0.60;;;;;;;;;;4966430;28;100324;-83
2023/10/15 04:42:48;;;;;;;2.05;0.70;;;;;;;;;;4939227;28;98969;-81
2023/10/15 04:45:35;;;;;;;1.63;0.60;;;;;;;;;;4967558;28;99160;-81
2023/10/15 04:48:02;;;;;;;3.03;0.60;;;;;;;;;;4961219;28;99025;-81
2023/10/15 04:50:32;;;;;;;2.78;0.70;;;;;;;;;;4936636;28;98577;-81
2023/10/15 04:53:48;;;;;;;1.58;0.70;;;;;;;;;;4955669;28;99779;-82
2023/10/15 04:55:48;;;;;;;3.13;0.68;;;;;;;;;;4937282;28;100151;-81
2023/10/15 04:58:15;;;;;;;2.67;0.70;;;;;;;;;;4932502;28;98560;-81
2023/10/15 05:00:42;;;;;;;2.95;0.70;;;;;;;;;;4949905;28;100208;-81
2023/10/15 05:03:09;;;;;;;3.85;0.90;;;;;;;;;;4950964;28;99981;-80
2023/10/15 05:05:36;;;;;;;1.90;0.68;;;;;;;;;;4961654;28;99630;-81
2023/10/15 05:08:03;;;;;;;2.28;0.65;;;;;;;;;;4966478;28;99059;-81
2023/10/15 05:10:31;;;;;;;1.80;0.60;;;;;;;;;;4957774;28;98536;-82
2023/10/15 05:12:59;;;;;;;2.13;0.70;;;;;;;;;;4969358;28;98992;-81
2023/10/15 05:15:26;;;;;;;2.10;0.70;;;;;;;;;;4967159;28;101527;-81
2023/10/15 05:17:52;;;;;;;3.47;0.70;;;;;;;;;;4953887;28;98970;-81
2023/10/15 05:20:20;;;;;;;2.28;0.80;;;;;;;;;;4971017;28;98625;-80
2023/10/15 05:22:47;;;;;;;1.02;0.60;;;;;;;;;;4960812;28;99180;-81
2023/10/15 05:25:17;;;;;;;2.40;0.73;;;;;;;;;;4974368;28;98923;-81
2023/10/15 05:27:44;;;;;;;2.95;0.60;;;;;;;;;;4958882;28;100811;-83
2023/10/15 05:30:15;;;;;;;4.50;0.80;;;;;;;;;;4966319;28;98609;-82
2023/10/15 05:32:45;;;;;;;2.97;0.60;;;;;;;;;;4947207;28;98870;-82
2023/10/15 05:35:12;;;;;;;1.15;0.70;;;;;;;;;;4956987;28;99474;-82
2023/10/15 05:37:41;;;;;;;2.58;0.88;;;;;;;;;;4947691;28;98609;-83
2023/10/15 05:40:08;;;;;;;1.17;0.60;;;;;;;;;;4963149;28;99238;-82
2023/10/15 05:42:35;;;;;;;2.22;0.65;;;;;;;;;;4942769;28;99281;-82
2023/10/15 05:45:06;;;;;;;2.25;0.63;;;;;;;;;;4942994;28;98174;-82
2023/10/15 05:47:33;;;;;;;1.58;0.60;;;;;;;;;;4934046;28;99228;-82
2023/10/15 05:50:01;;;;;;;1.52;0.70;;;;;;;;;;4963648;28;98669;-82
2023/10/15 05:52:27;;;;;;;2.60;0.68;;;;;;;;;;4954395;28;99583;-81
2023/10/15 05:54:54;;;;;;;2.55;0.68;;;;;;;;;;4938138;28;99341;-82
2023/10/15 05:57:21;;;;;;;2.78;0.60;;;;;;;;;;4944570;28;99023;-82
2023/10/15 05:59:48;;;;;;;2.72;0.80;;;;;;;;;;4958974;28;99769;-81
2023/10/15 06:02:15;;;;;;;1.88;0.63;;;;;;;;;;4945459;28;99618;-82
2023/10/15 06:04:43;;;;;;;3.28;0.90;;;;;;;;;;4937557;28;99233;-81
2023/10/15 06:07:10;;;;;;;3.30;0.70;;;;;;;;;;4938603;28;99500;-82
2023/10/15 06:09:36;;;;;;;1.05;0.55;;;;;;;;;;4952379;28;98802;-82
2023/10/15 06:12:05;;;;;;;2.42;0.75;;;;;;;;;;4963722;28;98731;-82
2023/10/15 06:14:32;;;;;;;1.25;0.60;;;;;;;;;;4965991;28;99420;-82
2023/10/15 06:16:59;;;;;;;1.58;0.57;;;;;;;;;;4950348;28;99302;-82
2023/10/15 06:19:26;;;;;;;3.38;0.80;;;;;;;;;;4949760;28;99756;-82
2023/10/15 06:21:53;;;;;;;2.65;0.70;;;;;;;;;;4956117;28;99433;-83
2023/10/15 06:24:19;;;;;;;1.42;0.55;;;;;;;;;;4945719;28;98988;-82
2023/10/15 06:26:46;;;;;;;3.42;0.70;;;;;;;;;;4946445;28;99977;-83
2023/10/15 06:29:13;;;;;;;1.88;0.50;;;;;;;;;;4952608;28;99222;-83
2023/10/15 06:31:40;;;;;;;3.65;0.88;;;;;;;;;;4961274;28;98807;-84
2023/10/15 06:34:06;;;;;;;1.95;0.50;;;;;;;;;;4959913;28;98516;-83
2023/10/15 06:36:33;;;;;;;3.92;0.77;;;;;;;;;;4941095;28;98903;-83
2023/10/15 06:39:03;;;;;;;2.80;0.90;;;;;;;;;;4943801;28;98958;-83
2023/10/15 06:41:31;;;;;;;2.60;0.73;;;;;;;;;;4956271;28;100023;-84
2023/10/15 06:44:03;;;;;;;4.40;0.80;;;;;;;;;;4962355;28;100166;-82
2023/10/15 06:46:31;;;;;;;2.95;1.08;;;;;;;;;;4964701;28;99430;-83
2023/10/15 06:48:57;;;;;;;4.32;0.93;;;;;;;;;;4964106;28;99454;-83
2023/10/15 06:51:26;;;;;;;3.28;0.82;;;;;;;;;;4960760;28;98895;-83
2023/10/15 06:53:52;;;;;;;2.20;0.80;;;;;;;;;;4953862;28;99396;-83
2023/10/15 06:56:19;;;;;;;1.65;0.80;;;;;;;;;;4960675;28;99146;-83
2023/10/15 06:58:46;;;;;;;1.58;0.60;;;;;;;;;;4949481;28;99304;-83
2023/10/15 07:01:13;;;;;;;1.63;0.85;;;;;;;;;;4945487;28;100415;-83
2023/10/15 07:03:40;;;;;;;2.30;0.73;;;;;;;;;;4946781;28;98474;-83
2023/10/15 07:06:06;;;;;;;4.72;0.90;;;;;;;;;;4949150;28;106189;-83
2023/10/15 07:08:33;;;;;;;2.65;0.75;;;;;;;;;;4956125;28;99131;-83
2023/10/15 07:11:00;;;;;;;2.47;0.82;;;;;;;;;;4968922;28;98528;-83
2023/10/15 07:13:26;;;;;;;2.15;0.80;;;;;;;;;;4950575;28;99511;-83
2023/10/15 07:15:54;;;;;;;3.55;1.00;;;;;;;;;;4952601;28;98960;-83
2023/10/15 07:18:20;;;;;;;2.30;0.80;;;;;;;;;;4948316;28;100989;-83
2023/10/15 07:20:47;;;;;;;4.72;1.00;;;;;;;;;;4960848;28;98811;-83
2023/10/15 07:23:14;;;;;;;2.58;0.90;;;;;;;;;;4961332;28;98861;-82
2023/10/15 07:25:43;;;;;;;3.03;1.00;;;;;;;;;;4968104;28;98557;-83
2023/10/15 07:28:10;;;;;;;4.22;0.90;;;;;;;;;;4950317;28;100614;-83
2023/10/15 07:30:37;;;;;;;3.15;0.73;;;;;;;;;;4968140;28;99839;-83
2023/10/15 07:33:03;;;;;;;4.65;1.10;;;;;;;;;;4972582;28;98904;-82
2023/10/15 07:35:30;;;;;;;6.88;0.90;;;;;;;;;;4966782;28;99202;-83
2023/10/15 07:37:57;;;;;;;3.50;0.90;;;;;;;;;;4945372;28;98796;-81
2023/10/15 07:40:27;;;;;;;2.92;1.00;;;;;;;;;;4948962;28;99367;-82
2023/10/15 07:42:59;;;;;;;2.97;0.80;;;;;;;;;;4964605;28;99120;-83
2023/10/15 07:45:28;;;;;;;8.88;1.20;;;;;;;;;;4945841;28;98910;-83
2023/10/15 07:47:55;;;;;;;3.10;0.90;;;;;;;;;;4960776;28;98375;-82
2023/10/15 07:50:24;;;;;;;3.55;0.82;;;;;;;;;;4962704;28;98589;-82
2023/10/15 07:52:52;;;;;;;2.45;0.73;;;;;;;;;;4953557;28;100234;-82
2023/10/15 07:55:19;;;;;;;3.92;0.98;;;;;;;;;;4961116;28;100024;-82
2023/10/15 07:57:46;;;;;;;4.78;0.93;;;;;;;;;;4943116;28;99457;-82
2023/10/15 08:00:16;;;;;;;5.38;1.10;;;;;;;;;;4945615;28;99643;-82
2023/10/15 08:02:45;;;;;;;4.57;1.10;;;;;;;;;;4938989;28;99240;-80
2023/10/15 08:05:12;;;;;;;2.63;0.77;;;;;;;;;;4938048;28;99002;-81
2023/10/15 08:07:41;;;;;;;3.63;0.90;;;;;;;;;;4961198;28;100289;-81
2023/10/15 08:10:08;;;;;;;3.65;0.73;;;;;;;;;;4966487;28;98905;-80
2023/10/15 08:12:35;;;;;;;5.65;1.08;;;;;;;;;;4956702;28;98745;-80
2023/10/15 08:15:02;;;;;;;1.67;0.75;;;;;;;;;;4956330;28;99612;-83
2023/10/15 08:17:31;;;;;;;3.92;1.20;;;;;;;;;;4968814;28;98972;-81
2023/10/15 08:19:58;;;;;;;2.78;0.85;;;;;;;;;;4939964;28;99900;-80
2023/10/15 08:22:28;;;;;;;5.35;0.90;;;;;;;;;;4948008;28;98568;-81
2023/10/15 08:24:55;;;;;;;2.92;0.90;;;;;;;;;;4947535;28;98676;-81
2023/10/15 08:27:22;;;;;;;3.95;0.82;;;;;;;;;;4947206;28;99002;-81
2023/10/15 08:29:48;;;;;;;3.25;0.80;;;;;;;;;;4948371;28;98892;-80
2023/10/15 08:32:18;;;;;;;3.95;0.90;;;;;;;;;;4946710;28;99049;-81
2023/10/15 08:34:44;;;;;;;3.42;0.80;;;;;;;;;;4935878;28;102053;-81
2023/10/15 08:37:11;;;;;;;2.38;0.80;;;;;;;;;;4965402;28;98181;-82
2023/10/15 08:39:38;;;;;;;3.78;0.90;;;;;;;;;;4938492;28;100689;-81
2023/10/15 08:42:12;;;;;;;2.42;0.82;;;;;;;;;;4947987;28;98640;-81
2023/10/15 08:44:40;;;;;;;3.17;0.80;;;;;;;;;;4957522;28;99409;-81
2023/10/15 08:47:09;;;;;;;2.97;1.00;;;;;;;;;;4981696;28;99795;-80
2023/10/15 08:49:39;;;;;;;8.23;1.30;;;;;;;;;;4942022;28;98850;-81
2023/10/15 08:52:06;;;;;;;2.08;1.08;;;;;;;;;;4935418;28;98639;-81
2023/10/15 08:54:38;;;;;;;3.45;0.98;;;;;;;;;;4958065;28;99312;-80
2023/10/15 08:57:08;;;;;;;5.18;1.40;;;;;;;;;;4949452;28;98908;-83
2023/10/15 08:59:38;;;;;;;2.97;0.90;;;;;;;;;;4955088;28;98719;-80
2023/10/15 09:02:05;;;;;;;1.83;0.80;;;;;;;;;;4954550;28;99819;-82
2023/10/15 09:04:32;;;;;;;2.55;0.90;;;;;;;;;;4932572;28;100536;-80
2023/10/15 09:07:01;;;;;;;4.93;1.02;;;;;;;;;;4947112;28;100377;-81
2023/10/15 09:09:34;;;;;;;3.10;0.90;;;;;;;;;;4945979;28;99669;-81
2023/10/15 09:12:00;;;;;;;4.32;0.93;;;;;;;;;;4949144;28;99678;-81
2023/10/15 09:14:37;;;;;;;2.58;0.80;;;;;;;;;;4940889;28;100041;-82
2023/10/15 09:17:03;;;;;;;3.50;0.85;;;;;;;;;;4956264;28;98615;-82
2023/10/15 09:19:31;;;;;;;3.53;0.90;;;;;;;;;;4966497;28;98843;-82
2023/10/15 09:21:58;;;;;;;2.03;0.73;;;;;;;;;;4957774;28;99084;-81
2023/10/15 09:24:26;;;;;;;2.60;0.75;;;;;;;;;;4938058;28;98931;-82
2023/10/15 09:26:53;;;;;;;3.80;0.80;;;;;;;;;;4963136;28;98451;-81
2023/10/15 09:29:20;;;;;;;2.50;0.65;;;;;;;;;;4946063;28;98638;-82
2023/10/15 09:31:48;;;;;;;4.40;0.85;;;;;;;;;;4961935;28;99454;-81
2023/10/15 09:34:16;;;;;;;1.98;0.68;;;;;;;;;;4963611;28;100333;-81
2023/10/15 09:36:42;;;;;;;;;;;;;;;;;;4945134;28;98612;-81
2023/10/15 09:39:12;;;;;;;4.45;0.80;;;;;;;;;;4938864;28;98964;-81
2023/10/15 09:41:41;;;;;;;2.67;0.77;;;;;;;;;;4936821;28;99159;-80
2023/10/15 09:44:17;;;;;;;2.75;0.70;;;;;;;;;;4941829;28;98765;-80
2023/10/15 09:46:44;;;;;;;2.67;0.90;;;;;;;;;;4936413;28;99254;-80
2023/10/15 09:49:12;;;;;;;2.28;0.65;;;;;;;;;;4945895;28;98967;-81
2023/10/15 09:51:39;;;;;;;2.30;0.70;;;;;;;;;;4939486;28;98980;-81
2023/10/15 09:54:06;;;;;;;;;;;;;;;;;;4943358;28;99491;-81
2023/10/15 09:56:35;;;;;;;2.42;0.80;;;;;;;;;;4946090;28;98727;-81
2023/10/15 09:59:02;;;;;;;3.30;0.98;;;;;;;;;;4942739;28;100050;-82
2023/10/15 10:01:30;;;;;;;1.30;0.70;;;;;;;;;;4957616;28;99133;-81
2023/10/15 10:04:06;;;;;;;2.75;0.85;;;;;;;;;;4924580;28;98575;-79
2023/10/15 10:06:37;;;;;;;3.22;0.73;;;;;;;;;;4927191;28;98921;-81
2023/10/15 10:09:21;;;;;;;3.03;0.88;;;;;;;;;;4944795;28;98769;-81
2023/10/15 10:12:07;;;;;;;2.55;0.90;;;;;;;;;;4962401;28;98856;-82
2023/10/15 10:14:48;;;;;;;2.95;0.90;;;;;;;;;;4944742;28;104134;-81
2023/10/15 10:17:18;;;;;;;2.67;0.70;;;;;;;;;;4957547;28;98377;-82
2023/10/15 10:19:48;;;;;;;2.15;0.88;;;;;;;;;;4948475;28;99001;-81
2023/10/15 10:22:24;;;;;;;2.72;0.82;;;;;;;;;;4945199;28;102456;-81
2023/10/15 10:24:50;;;;;;;1.95;0.82;;;;;;;;;;4948143;28;101194;-83
2023/10/15 10:27:17;;;;;;;2.90;0.80;;;;;;;;;;4937921;28;99553;-82
2023/10/15 10:29:49;;;;;;;1.15;0.60;;;;;;;;;;4932178;28;99256;-81
2023/10/15 10:32:17;;;;;;;4.13;0.75;;;;;;;;;;4946941;28;99234;-82
2023/10/15 10:34:47;;;;;;;3.78;0.70;;;;;;;;;;4961109;28;98441;-82
2023/10/15 10:37:20;;;;;;;1.98;0.80;;;;;;;;;;4965212;28;98453;-81
2023/10/15 10:39:48;;;;;;;0.85;0.60;;;;;;;;;;4965487;28;100066;-81
2023/10/15 10:42:22;;;;;;;1.20;0.60;;;;;;;;;;4945072;28;99018;-82
2023/10/15 10:44:49;;;;;;;3.15;0.80;;;;;;;;;;4959363;28;98684;-82
2023/10/15 10:47:17;;;;;;;1.98;0.70;;;;;;;;;;4942037;28;99069;-82
2023/10/15 10:49:50;;;;;;;1.33;0.70;;;;;;;;;;4935339;28;100081;-82
2023/10/15 10:52:17;;;;;;;2.33;0.90;;;;;;;;;;4950873;28;99220;-82
2023/10/15 10:54:45;;;;;;;2.03;0.82;;;;;;;;;;4957842;28;99114;-82
2023/10/15 10:57:12;;;;;;;3.28;1.30;;;;;;;;;;4963752;28;99109;-82
2023/10/15 10:59:41;;;;;;;4.57;1.80;;;;;;;;;;4935240;28;99131;-80
2023/10/15 11:02:11;;;;;;;5.45;1.88;;;;;;;;;;4924588;28;99375;-80
2023/10/15 11:04:39;;;;;;;6.18;2.10;;;;;;;;;;4945819;28;98465;-80
2023/10/15 11:07:07;;;;;;;5.38;1.70;;;;;;;;;;4955592;28;98864;-81
2023/10/15 11:09:38;;;;;;;5.25;1.88;;;;;;;;;;4964810;28;99155;-82
2023/10/15 11:12:06;;;;;;;6.10;2.03;;;;;;;;;;4952684;28;100737;-81
2023/10/15 11:14:33;;;;;;;4.93;1.83;;;;;;;;;;4952361;28;99291;-82
2023/10/15 11:16:59;;;;;;;6.15;2.03;;;;;;;;;;4943030;28;98616;-86
2023/10/15 11:19:29;;;;;;;13.98;2.67;;;;;;;;;;4955071;28;100335;-81
2023/10/15 11:21:56;;;;;;;6.55;2.08;;;;;;;;;;4943792;28;99025;-83
2023/10/15 11:24:23;;;;;;;6.10;2.40;;;;;;;;;;4948193;28;99879;-83
2023/10/15 11:26:51;;;;;;;10.02;2.40;;;;;;;;;;4949400;28;99449;-82
2023/10/15 11:29:18;;;;;;;7.72;2.15;;;;;;;;;;4943830;28;99165;-83
2023/10/15 11:31:49;;;;;;;8.93;2.00;;;;;;;;;;4930732;28;97726;-83
2023/10/15 11:34:17;;;;;;;5.50;2.10;;;;;;;;;;4951936;28;98748;-82
2023/10/15 11:36:48;;;;;;;7.97;2.20;;;;;;;;;;4947549;28;100350;-82
2023/10/15 11:39:18;;;;;;;6.63;2.30;;;;;;;;;;4936862;28;99646;-83
2023/10/15 11:41:51;;;;;;;4.82;2.00;;;;;;;;;;4931059;28;100327;-83
2023/10/15 11:44:25;;;;;;;5.53;2.00;;;;;;;;;;4938294;28;98655;-82
2023/10/15 11:46:54;;;;;;;5.78;1.95;;;;;;;;;;4930860;28;102666;-82
2023/10/15 11:49:24;;;;;;;6.18;2.10;;;;;;;;;;4942187;28;101660;-84
2023/10/15 11:51:58;;;;;;;7.47;2.10;;;;;;;;;;4953446;28;98944;-84
2023/10/15 11:54:28;;;;;;;8.13;2.20;;;;;;;;;;4941278;28;104582;-82
2023/10/15 11:56:54;;;;;;;6.38;2.00;;;;;;;;;;4944565;28;98522;-83
2023/10/15 11:59:22;;;;;;;6.57;2.15;;;;;;;;;;4944907;28;100581;-82
2023/10/15 12:01:51;;;;;;;;;;;;;;;;;;4946349;28;99092;-81
2023/10/15 12:04:19;;;;;;;6.35;1.95;;;;;;;;;;4931017;28;99438;-82
2023/10/15 12:06:49;;;;;;;7.22;1.95;;;;;;;;;;4966196;28;101235;-83
2023/10/15 12:09:24;;;;;;;6.30;1.90;;;;;;;;;;4946632;28;99157;-83
2023/10/15 12:11:52;;;;;;;6.38;1.80;;;;;;;;;;4941263;28;98959;-84
2023/10/15 12:14:19;;;;;;;4.38;1.77;;;;;;;;;;4935905;28;100378;-84
2023/10/15 12:16:46;;;;;;;5.03;1.85;;;;;;;;;;4950540;28;100048;-84
2023/10/15 12:19:13;;;;;;;4.68;1.70;;;;;;;;;;4953132;28;98990;-85
2023/10/15 12:21:39;;;;;;;4.40;1.80;;;;;;;;;;4949224;28;98596;-82
2023/10/15 12:24:08;;;;;;;4.47;1.70;;;;;;;;;;4953782;28;98921;-84
2023/10/15 12:26:35;;;;;;;4.63;1.60;;;;;;;;;;4951348;28;99868;-83
2023/10/15 12:29:03;;;;;;;4.88;1.70;;;;;;;;;;4950575;28;100336;-82
2023/10/15 12:31:52;;;;;;;4.57;1.60;;;;;;;;;;4957506;28;98690;-83
2023/10/15 12:34:20;;;;;;;4.25;1.63;;;;;;;;;;4961963;28;98772;-83
2023/10/15 12:36:47;;;;;;;3.55;1.58;;;;;;;;;;4949664;28;99226;-83
2023/10/15 12:39:14;;;;;;;4.25;1.60;;;;;;;;;;4946582;28;99221;-82
2023/10/15 12:41:41;;;;;;;3.42;1.35;;;;;;;;;;4947826;28;100761;-82
2023/10/15 12:44:10;;;;;;;4.32;1.77;;;;;;;;;;4957906;28;98601;-83
2023/10/15 12:46:37;;;;;;;3.60;1.50;;;;;;;;;;4952390;28;100109;-84
2023/10/15 12:49:04;;;;;;;;;;;;;;;;;;4951052;28;99144;-83
2023/10/15 12:51:30;;;;;;;6.18;1.67;;;;;;;;;;4959389;28;99260;-83
2023/10/15 12:53:57;;;;;;;3.05;1.40;;;;;;;;;;4945250;28;99726;-79
2023/10/15 12:56:24;;;;;;;4.13;1.40;;;;;;;;;;4942007;28;100775;-83
2023/10/15 12:58:51;;;;;;;4.65;1.58;;;;;;;;;;4914519;28;99172;-82
2023/10/15 13:01:20;;;;;;;3.65;1.48;;;;;;;;;;4939020;28;99333;-82
2023/10/15 13:03:49;;;;;;;4.15;1.50;;;;;;;;;;4930134;28;99810;-83
2023/10/15 13:06:16;;;;;;;5.55;1.55;;;;;;;;;;4947491;28;98922;-82
2023/10/15 13:08:43;;;;;;;5.10;1.50;;;;;;;;;;4942467;28;99310;-83
2023/10/15 13:11:13;;;;;;;3.88;1.60;;;;;;;;;;4918984;28;98709;-82
2023/10/15 13:13:41;;;;;;;3.60;1.40;;;;;;;;;;4924249;28;99189;-82
2023/10/15 13:16:09;;;;;;;3.88;1.38;;;;;;;;;;4927700;28;98974;-82
2023/10/15 13:18:39;;;;;;;3.28;1.30;;;;;;;;;;4958973;28;99546;-83
2023/10/15 13:21:09;;;;;;;3.70;1.20;;;;;;;;;;4939570;28;101145;-83
2023/10/15 13:23:36;;;;;;;2.75;1.20;;;;;;;;;;4941836;28;99253;-83
2023/10/15 13:26:04;;;;;;;3.55;1.40;;;;;;;;;;4947881;28;99014;-82
2023/10/15 13:28:32;;;;;;;3.17;1.20;;;;;;;;;;4945338;28;99449;-83
2023/10/15 13:30:58;;;;;;;3.10;1.40;;;;;;;;;;4956937;28;98849;-84
2023/10/15 13:33:25;;;;;;;3.15;1.30;;;;;;;;;;4966404;28;99244;-82
2023/10/15 13:35:54;;;;;;;3.05;1.20;;;;;;;;;;4959905;28;98617;-83
2023/10/15 13:38:21;;;;;;;2.00;1.05;;;;;;;;;;4949177;28;98603;-83
2023/10/15 13:40:48;;;;;;;3.50;1.20;;;;;;;;;;4948436;28;99215;-83
2023/10/15 13:43:15;;;;;;;4.28;1.38;;;;;;;;;;4956834;28;100482;-83
2023/10/15 13:45:42;;;;;;;3.38;1.10;;;;;;;;;;4948018;28;98594;-83
2023/10/15 13:48:10;;;;;;;3.42;1.40;;;;;;;;;;4974807;28;99918;-83
2023/10/15 13:50:37;;;;;;;2.40;1.10;;;;;;;;;;4950430;28;98534;-83
2023/10/15 13:53:03;;;;;;;2.45;1.20;;;;;;;;;;4956966;28;98787;-83
2023/10/15 13:55:30;;;;;;;3.25;1.20;;;;;;;;;;4948179;28;100219;-83
2023/10/15 13:57:58;;;;;;;4.32;1.40;;;;;;;;;;4947995;28;99202;-77
2023/10/15 14:00:27;;;;;;;4.03;1.35;;;;;;;;;;4959828;28;99823;-82
2023/10/15 14:02:56;;;;;;;3.30;1.20;;;;;;;;;;4933924;28;99046;-83
2023/10/15 14:05:23;;;;;;;4.38;1.20;;;;;;;;;;4951089;28;99229;-82
2023/10/15 14:07:54;;;;;;;4.00;1.30;;;;;;;;;;4970521;28;100229;-83
2023/10/15 14:10:21;;;;;;;3.90;1.30;;;;;;;;;;4978076;28;98761;-81
2023/10/15 14:12:48;;;;;;;3.83;1.20;;;;;;;;;;4959316;28;99181;-83
2023/10/15 14:15:20;;;;;;;3.55;1.13;;;;;;;;;;4944420;28;98894;-81
2023/10/15 14:17:46;;;;;;;3.08;1.10;;;;;;;;;;4946874;28;106873;-82
2023/10/15 14:20:16;;;;;;;3.97;1.10;;;;;;;;;;4935626;28;102130;-82
2023/10/15 14:22:44;;;;;;;3.15;1.15;;;;;;;;;;4944417;28;99127;-82
2023/10/15 14:25:11;;;;;;;6.95;1.23;;;;;;;;;;4949058;28;98206;-83
2023/10/15 14:27:37;;;;;;;6.68;1.52;;;;;;;;;;4960663;28;99191;-82
2023/10/15 14:30:10;;;;;;;6.22;1.30;;;;;;;;;;4960640;28;99772;-81
2023/10/15 14:32:37;;;;;;;2.20;1.10;;;;;;;;;;4950970;28;99717;-82
2023/10/15 14:35:04;;;;;;;2.83;1.10;;;;;;;;;;4943102;28;99600;-83
2023/10/15 14:37:34;;;;;;;4.72;1.20;;;;;;;;;;4954565;28;99178;-83
2023/10/15 14:40:00;;;;;;;3.67;1.13;;;;;;;;;;4955226;28;98898;-85
2023/10/15 14:42:27;;;;;;;2.88;1.15;;;;;;;;;;4949673;28;99604;-84
2023/10/15 14:44:54;;;;;;;2.90;1.05;;;;;;;;;;4964144;28;99400;-83
2023/10/15 14:47:20;;;;;;;2.65;1.10;;;;;;;;;;4945505;28;98740;-84
2023/10/15 14:49:47;;;;;;;4.60;1.10;;;;;;;;;;4960396;28;99175;-84
2023/10/15 14:52:14;;;;;;;3.22;1.00;;;;;;;;;;4965102;28;99064;-84
2023/10/15 14:54:40;;;;;;;2.20;0.82;;;;;;;;;;4950034;28;99104;-83
2023/10/15 14:57:15;;;;;;;2.85;1.17;;;;;;;;;;4943804;28;99568;-83
2023/10/15 14:59:42;;;;;;;3.65;1.00;;;;;;;;;;4948690;28;99663;-84
2023/10/15 15:02:10;;;;;;;3.20;0.98;;;;;;;;;;4938030;28;99164;-83
2023/10/15 15:04:36;;;;;;;3.88;1.10;;;;;;;;;;4949154;28;99866;-84
2023/10/15 15:07:03;;;;;;;3.92;1.10;;;;;;;;;;4960349;28;99097;-84